• Join FlightAware (Why Join?)
  • Login
  • US Flag 
Gobble Gobble! 
06:13AM EST


 

Airport Tracker/Info


-or-


 

Live Flight TrackerFlight Track Log ✈ DAL10 ✈ 10-Apr-2013 ✈ KATL - EGLL / LHR

Flight Track Log - Related Links

Times and Time Zones

All times are in EDT time to prevent confusion due to time zone crossing. See the DAL10 flight status page for this flight to view local times or setup timezone preferences in your user account.

Time Position Orientation Groundspeed Altitude Reporting Facility
EDT Latitude Longitude Course Direction KTS MPH feet Rate Location/Type
11:02PM 33.6350 -84.3790 91° East 191 220 2,600  Level FlightAware
11:03PM 33.6340 -84.3480 92° East 192 221 2,800 1,560 Climbing FlightAware
11:04PM 33.6330 -84.2540 91° East 273 314 5,100 1,500 Climbing FlightAware
11:04PM 33.6330 -84.2210 90° East 273 314 5,100 2,580 Level FlightAware
11:06PM 33.6360 -84.0740 89° East 296 341 10,100 2,700 Climbing FlightAware
11:06PM 33.6400 -84.0040 86° East 334 384 11,000 1,200 Climbing FlightAware
11:07PM 33.6450 -83.9230 86° East 375 432 11,700 1,080 Climbing FlightAware
11:08PM 33.6500 -83.8250 86° East 411 473 12,600 1,680 Climbing FlightAware
11:08PM 33.6560 -83.7310 86° East 421 484 14,100 2,160 Climbing FlightAware
11:09PM 33.6690 -83.6280 81° East 437 503 15,700 1,920 Climbing FlightAware
11:10PM 33.7020 -83.5370 66° East 451 519 16,900 1,860 Climbing FlightAware
11:11PM 33.7400 -83.4450 64° Northeast 455 524 18,400 1,920 Climbing FlightAware
11:11PM 33.7820 -83.3430 64° Northeast 467 537 19,700 1,920 Climbing FlightAware
11:12PM 33.8190 -83.2490 65° Northeast 471 542 21,000 1,860 Climbing FlightAware
11:13PM 33.8600 -83.1480 64° Northeast 479 551 22,400 1,800 Climbing FlightAware
11:13PM 33.9010 -83.0440 65° Northeast 485 558 23,600 1,620 Climbing FlightAware
11:14PM 33.9460 -82.9320 64° Northeast 495 570 24,700 1,440 Climbing FlightAware
11:15PM 33.9880 -82.8280 64° Northeast 498 573 25,700 1,620 Climbing FlightAware
11:15PM 34.0290 -82.7240 65° Northeast 502 578 26,900 1,620 Climbing FlightAware
11:16PM 34.0670 -82.6270 65° Northeast 501 577 27,900 1,440 Climbing FlightAware
11:17PM 34.1120 -82.5120 65° Northeast 502 578 29,000 720 Climbing FlightAware
11:18PM 34.1560 -82.4010 64° Northeast 504 580 29,000  Level FlightAware
11:18PM 34.1960 -82.2970 65° Northeast 505 581 29,000  Level FlightAware
11:19PM 34.2370 -82.1960 64° Northeast 506 582 29,000  Level FlightAware
11:20PM 34.2870 -82.0870 61° Northeast 504 580 29,000 60 Level FlightAware
11:20PM 34.3350 -81.9910 59° Northeast 504 580 29,100 1,200 Climbing FlightAware
11:21PM 34.3890 -81.8830 59° Northeast 489 563 30,700 1,320 Climbing FlightAware
11:22PM 34.4350 -81.7910 59° Northeast 488 562 31,000 180 Climbing FlightAware
11:22PM 34.4810 -81.6980 59° Northeast 488 562 31,000  Level FlightAware
11:23PM 34.5340 -81.5920 59° Northeast 489 563 31,000  Level FlightAware
11:24PM 34.5710 -81.5170 59° Northeast 490 564 31,000  Level FlightAware
11:25PM 34.6220 -81.4130 59° Northeast 492 566 31,000  Level FlightAware
11:25PM 34.6800 -81.2960 59° Northeast 492 566 31,000  Level FlightAware
11:26PM 34.7320 -81.1890 59° Northeast 491 565 31,000  Level FlightAware
11:27PM 34.7770 -81.0980 59° Northeast 491 565 31,000  Level FlightAware
11:27PM 34.8250 -80.9980 60° Northeast 490 564 31,000  Level FlightAware
11:28PM 34.8760 -80.8950 59° Northeast 489 563 31,000  Level FlightAware
11:29PM 34.9370 -80.7680 60° Northeast 489 563 31,000  Level FlightAware
11:30PM 34.9770 -80.6870 59° Northeast 489 563 31,000  Level FlightAware
11:30PM 35.0270 -80.5840 59° Northeast 489 563 31,000  Level FlightAware
11:32PM 35.0390 -80.5590 60° Northeast 489 563 31,000  Level FlightAware
11:32PM 35.0780 -80.4790 59° Northeast 489 563 31,000  Level FlightAware
11:33PM 35.1180 -80.3980 59° Northeast 489 563 31,000  Level FlightAware
11:34PM 35.1570 -80.3180 59° Northeast 489 563 31,000  Level FlightAware
11:34PM 35.1970 -80.2370 59° Northeast 489 563 31,000  Level FlightAware
11:35PM 35.2470 -80.1360 59° Northeast 489 563 31,000  Level FlightAware
11:36PM 35.2860 -80.0550 59° Northeast 489 563 31,000  Level FlightAware
11:36PM 35.3260 -79.9740 59° Northeast 489 563 31,000  Level FlightAware
11:37PM 35.3650 -79.8940 59° Northeast 489 563 31,000  Level FlightAware
11:38PM 35.4050 -79.8130 59° Northeast 489 563 31,000  Level FlightAware
11:39PM 35.4550 -79.7120 59° Northeast 489 563 31,000  Level FlightAware
11:39PM 35.4940 -79.6310 59° Northeast 489 563 31,000  Level FlightAware
11:40PM 35.5340 -79.5500 59° Northeast 489 563 31,000  Level FlightAware
11:41PM 35.7440 -79.0880 61° Northeast 491 565 31,000  Level FlightAware
11:41PM 35.8030 -78.9950 52° Northeast 490 564 31,000  Level FlightAware
11:42PM 35.8700 -78.8940 51° Northeast 489 563 31,000  Level FlightAware
11:43PM 35.9270 -78.8100 50° Northeast 490 564 31,000  Level FlightAware
11:44PM 35.9900 -78.7140 51° Northeast 490 564 31,000  Level FlightAware
11:44PM 36.0460 -78.6270 51° Northeast 491 565 31,000  Level FlightAware
11:45PM 36.1050 -78.5380 51° Northeast 492 566 31,000  Level FlightAware
11:46PM 36.1710 -78.4370 51° Northeast 493 567 31,000  Level FlightAware
11:46PM 36.2260 -78.3520 51° Northeast 494 568 31,000  Level FlightAware
11:47PM 36.2900 -78.2540 51° Northeast 494 568 31,000  Level FlightAware
11:48PM 36.3390 -78.1780 51° Northeast 495 570 31,000  Level FlightAware
11:48PM 36.4050 -78.0760 51° Northeast 495 570 31,000  Level FlightAware
11:49PM 36.4710 -77.9740 51° Northeast 494 568 31,000  Level FlightAware
11:50PM 36.5210 -77.8980 51° Northeast 494 568 31,000  Level FlightAware
11:50PM 36.5700 -77.8230 51° Northeast 494 568 31,000  Level FlightAware
11:51PM 36.6190 -77.7480 51° Northeast 494 568 31,000  Level FlightAware
11:52PM 36.6940 -77.6270 52° Northeast 491 565 31,000  Level FlightAware
11:53PM 36.7520 -77.5370 51° Northeast 491 565 31,000  Level FlightAware
11:53PM 36.8010 -77.4620 51° Northeast 491 565 31,000  Level FlightAware
11:54PM 36.8620 -77.3690 51° Northeast 491 565 31,000  Level FlightAware
11:55PM 36.9360 -77.2460 53° Northeast 483 556 31,000  Level FlightAware
11:55PM 36.9980 -77.1480 52° Northeast 483 556 31,000  Level FlightAware
11:56PM 37.0570 -77.0530 52° Northeast 483 556 31,000  Level FlightAware
11:57PM 37.1040 -76.9780 52° Northeast 483 556 31,000  Level FlightAware
11:58PM 37.1860 -76.8480 52° Northeast 484 557 31,000  Level FlightAware
11:58PM 37.2470 -76.7510 52° Northeast 484 557 31,000  Level FlightAware
11:59PM 37.3350 -76.6090 52° Northeast 490 564 31,000  Level FlightAware
12:00AM 37.3899 -76.5202 52° Northeast 490 564 31,000  Level FlightAware ADS-B
12:01AM 37.4331 -76.4503 52° Northeast 490 564 31,000  Level FlightAware ADS-B
12:01AM 37.4788 -76.3765 52° Northeast 489 563 31,000  Level FlightAware ADS-B
12:02AM 37.5209 -76.3084 52° Northeast 488 562 31,000  Level FlightAware ADS-B
12:02AM 37.5689 -76.2301 52° Northeast 488 562 31,000  Level FlightAware ADS-B
12:03AM 37.6118 -76.1603 52° Northeast 486 559 31,000  Level FlightAware ADS-B
12:03AM 37.6537 -76.0921 52° Northeast 484 557 31,000  Level FlightAware ADS-B
12:04AM 37.6952 -76.0243 52° Northeast 483 556 31,000  Level FlightAware ADS-B
12:04AM 37.7410 -75.9490 52° Northeast 481 554 31,000  Level FlightAware
12:05AM 37.7666 -75.9070 52° Northeast 481 554 31,000  Level FlightAware ADS-B
12:06AM 37.8550 -75.7610 52° Northeast 479 551 31,000  Level FlightAware
12:06AM 37.8848 -75.7127 52° Northeast 479 551 31,000  Level FlightAware ADS-B
12:07AM 37.9258 -75.6449 53° Northeast 479 551 31,000  Level FlightAware ADS-B
12:07AM 37.9671 -75.5766 52° Northeast 479 551 31,000  Level FlightAware ADS-B
12:08AM 38.0092 -75.5071 52° Northeast 478 550 31,000  Level FlightAware ADS-B
12:08AM 38.0267 -75.4792 51° Northeast 477 549 31,000  Level FlightAware ADS-B
12:08AM 38.0559 -75.4410 46° Northeast 476 548 31,000  Level FlightAware ADS-B
12:09AM 38.1649 -75.3241 40° Northeast 474 545 31,000  Level FlightAware ADS-B
12:10AM 38.2161 -75.2670 41° Northeast 472 543 31,000  Level FlightAware ADS-B
12:10AM 38.2691 -75.2102 40° Northeast 471 542 31,000  Level FlightAware ADS-B
12:11AM 38.3212 -75.1556 39° Northeast 472 543 31,000  Level FlightAware ADS-B
12:11AM 38.3718 -75.1027 39° Northeast 472 543 31,000  Level FlightAware ADS-B
12:12AM 38.4390 -75.0330 39° Northeast 465 535 31,000  Level FlightAware
12:12AM 38.4595 -75.0114 40° Northeast 472 543 31,000  Level FlightAware ADS-B
12:13AM 38.5103 -74.9582 39° Northeast 473 544 31,000  Level FlightAware ADS-B
12:13AM 38.5637 -74.9020 39° Northeast 473 544 31,000  Level FlightAware ADS-B
12:14AM 38.6174 -74.8452 40° Northeast 473 544 31,000  Level FlightAware ADS-B
12:14AM 38.6729 -74.7861 40° Northeast 473 544 31,000  Level FlightAware ADS-B
12:15AM 38.7246 -74.7312 40° Northeast 472 543 31,000  Level FlightAware ADS-B
12:15AM 38.7768 -74.6760 39° Northeast 471 542 31,000  Level FlightAware ADS-B
12:16AM 38.8667 -74.5798 40° Northeast 462 532 31,000  Level FlightAware ADS-B
12:17AM 38.9170 -74.5261 40° Northeast 442 509 31,000  Level FlightAware ADS-B
12:17AM 38.9657 -74.4744 40° Northeast 449 517 31,000  Level FlightAware ADS-B
12:18AM 39.0013 -74.4357 40° Northeast 452 520 31,000  Level FlightAware ADS-B
12:18AM 39.0294 -74.3994 45° Northeast 454 522 31,000  Level FlightAware ADS-B
12:18AM 39.0682 -74.3342 53° Northeast 461 531 31,000  Level FlightAware ADS-B
12:19AM 39.1075 -74.2509 59° Northeast 465 535 31,000  Level FlightAware ADS-B
12:20AM 39.1444 -74.1721 59° Northeast 463 533 31,000  Level FlightAware ADS-B
12:20AM 39.1830 -74.0888 59° Northeast 462 532 31,000  Level FlightAware ADS-B
12:21AM 39.2169 -74.0154 59° Northeast 462 532 31,000  Level FlightAware ADS-B
12:21AM 39.2522 -73.9390 59° Northeast 461 531 31,000  Level FlightAware ADS-B
12:22AM 39.2862 -73.8653 59° Northeast 463 533 31,000  Level FlightAware ADS-B
12:22AM 39.3202 -73.7939 58° Northeast 464 534 31,000  Level FlightAware ADS-B
12:23AM 39.3547 -73.7213 58° Northeast 466 536 31,000  Level FlightAware ADS-B
12:23AM 39.3888 -73.6489 59° Northeast 466 536 31,000  Level FlightAware ADS-B
12:24AM 39.4226 -73.5770 59° Northeast 467 537 31,000  Level FlightAware ADS-B
12:24AM 39.4565 -73.5048 59° Northeast 467 537 31,000  Level FlightAware ADS-B
12:25AM 39.4925 -73.4280 59° Northeast 466 536 31,000  Level FlightAware ADS-B
12:25AM 39.5259 -73.3563 59° Northeast 466 536 31,000  Level FlightAware ADS-B
12:26AM 39.5594 -73.2845 59° Northeast 465 535 31,000  Level FlightAware ADS-B
12:26AM 39.5966 -73.2044 59° Northeast 464 534 31,000  Level FlightAware ADS-B
12:27AM 39.6298 -73.1330 59° Northeast 464 534 31,000  Level FlightAware ADS-B
12:27AM 39.6629 -73.0614 59° Northeast 465 535 31,000  Level FlightAware ADS-B
12:28AM 39.6979 -72.9857 59° Northeast 466 536 31,000  Level FlightAware ADS-B
12:28AM 39.7312 -72.9133 59° Northeast 469 540 31,000  Level FlightAware ADS-B
12:29AM 39.7649 -72.8399 59° Northeast 471 542 31,000  Level FlightAware ADS-B
12:29AM 39.8003 -72.7629 59° Northeast 472 543 31,000  Level FlightAware ADS-B
12:30AM 39.8347 -72.6878 59° Northeast 474 545 31,000  Level FlightAware ADS-B
12:31AM 39.8708 -72.6084 59° Northeast 474 545 31,000  Level FlightAware ADS-B
12:31AM 39.9052 -72.5329 59° Northeast 476 548 31,000  Level FlightAware ADS-B
12:32AM 39.9390 -72.4584 59° Northeast 477 549 31,000  Level FlightAware ADS-B
12:32AM 39.9910 -72.3440 59° Northeast 478 550 31,000  Level FlightAware
12:33AM 40.0360 -72.2450 59° Northeast 479 551 31,000  Level FlightAware
12:34AM 40.0860 -72.1320 60° Northeast 479 551 31,000  Level FlightAware
12:34AM 40.1240 -72.0460 60° Northeast 479 551 31,000  Level FlightAware
12:35AM 40.1720 -71.9400 59° Northeast 481 554 31,000  Level FlightAware
12:36AM 40.2250 -71.8200 60° Northeast 483 556 31,000  Level FlightAware
12:36AM 40.2650 -71.7290 60° Northeast 483 556 31,000  Level FlightAware
12:37AM 40.3050 -71.6390 60° Northeast 486 559 31,000  Level FlightAware
12:38AM 40.3620 -71.5100 60° Northeast 486 559 31,000  Level FlightAware
12:39AM 40.4000 -71.4230 60° Northeast 486 559 31,000  Level FlightAware
12:39AM 40.4390 -71.3360 59° Northeast 486 559 31,000  Level FlightAware
12:40AM 40.4770 -71.2490 60° Northeast 486 559 31,000  Level FlightAware
12:41AM 40.5250 -71.1400 60° Northeast 486 559 31,000  Level FlightAware
12:41AM 40.5630 -71.0530 60° Northeast 486 559 31,000  Level FlightAware
12:42AM 40.6010 -70.9660 60° Northeast 486 559 31,000  Level FlightAware
12:43AM 40.6900 -70.7530 61° Northeast 487 560 31,000  Level FlightAware
12:43AM 40.7260 -70.6690 60° Northeast 487 560 31,000  Level FlightAware
12:44AM 40.7740 -70.5600 60° Northeast 487 560 31,000  Level FlightAware
12:45AM 40.8120 -70.4720 60° Northeast 487 560 31,000  Level FlightAware
12:46AM 40.8500 -70.3850 60° Northeast 487 560 31,000  Level FlightAware
12:46AM 40.8890 -70.2970 60° Northeast 487 560 31,000  Level FlightAware
12:47AM 40.9270 -70.2090 60° Northeast 487 560 31,000  Level FlightAware
12:48AM 40.9750 -70.0990 60° Northeast 487 560 31,000  Level FlightAware
12:48AM 41.0130 -70.0110 60° Northeast 487 560 31,000  Level FlightAware
12:49AM 41.0510 -69.9240 60° Northeast 487 560 31,000  Level FlightAware
12:50AM 41.0900 -69.8360 60° Northeast 487 560 31,000  Level FlightAware
12:50AM 41.1280 -69.7470 60° Northeast 487 560 31,000  Level FlightAware
12:51AM 41.1760 -69.6370 60° Northeast 487 560 31,000  Level FlightAware
12:52AM 41.2140 -69.5490 60° Northeast 487 560 31,000  Level FlightAware
12:53AM 41.2520 -69.4610 60° Northeast 487 560 31,000  Level FlightAware
12:53AM 41.3622 -69.1458 60° Northeast 500 575 31,000  Level Boston Center
12:58AM 41.7060 -68.2590 60° Northeast 511 588 31,000  Level FlightAware
12:59AM 41.7460 -68.1540 63° Northeast 511 588 31,000  Level FlightAware
01:00AM 41.7830 -68.0580 63° Northeast 511 588 31,000  Level FlightAware
01:00AM 41.8190 -67.9620 63° Northeast 511 588 31,000  Level FlightAware
01:01AM 41.8560 -67.8660 63° Northeast 511 588 31,000  Level FlightAware
01:02AM 41.9780 -67.5510 62° Northeast 517 595 31,000  Level FlightAware
01:03AM 42.0230 -67.4340 63° Northeast 517 595 31,000  Level FlightAware
01:04AM 42.0600 -67.3360 63° Northeast 517 595 31,000  Level FlightAware
01:04AM 42.0960 -67.2380 64° Northeast 517 595 31,000  Level FlightAware
01:05AM 42.1430 -67.1160 63° Northeast 517 595 31,000  Level FlightAware
01:06AM 42.1800 -67.0190 63° Northeast 517 595 31,000  Level FlightAware
01:07AM 42.2160 -66.9210 64° Northeast 517 595 31,000  Level FlightAware
01:07AM 42.2530 -66.8230 63° Northeast 517 595 31,000  Level FlightAware
01:08AM 42.2900 -66.7250 63° Northeast 517 595 31,000  Level FlightAware
01:09AM 42.3360 -66.6020 63° Northeast 517 595 31,000  Level FlightAware
01:09AM 42.3730 -66.5040 63° Northeast 517 595 31,000  Level FlightAware
01:10AM 42.4100 -66.4060 63° Northeast 517 595 31,000  Level FlightAware
01:11AM 42.4470 -66.3080 63° Northeast 517 595 31,000  Level FlightAware
01:11AM 42.4840 -66.2100 63° Northeast 517 595 31,000  Level FlightAware
01:12AM 42.5300 -66.0870 63° Northeast 517 595 31,000  Level FlightAware
01:13AM 42.6333 -65.5333 63° Northeast 530 610 31,000  Level Moncton Center
01:14AM 42.6833 -65.3500 70° East 520 598 31,000  Level Moncton Center
01:15AM 42.7333 -65.1667 70° East 530 610 31,000  Level Moncton Center
01:16AM 42.8000 -64.9667 66° East 530 610 31,000  Level Moncton Center
01:17AM 42.8500 -64.7833 70° East 530 610 31,000  Level Moncton Center
01:18AM 42.9000 -64.6000 70° East 530 610 31,000  Level Moncton Center
01:19AM 42.9500 -64.4167 70° East 530 610 31,000  Level Moncton Center
01:20AM 43.0000 -64.2167 71° East 530 610 31,000  Level Moncton Center
01:21AM 43.0667 -64.0333 63° Northeast 540 621 31,000  Level Moncton Center
01:22AM 43.1167 -63.8500 69° East 540 621 31,000  Level Moncton Center
01:23AM 43.1667 -63.6333 72° East 530 610 31,000  Level Moncton Center
01:24AM 43.2167 -63.4500 69° East 540 621 31,000  Level Moncton Center
01:25AM 43.2667 -63.2667 69° East 540 621 31,000  Level Moncton Center
01:26AM 43.3333 -63.0667 65° Northeast 540 621 31,000  Level Moncton Center
01:27AM 43.3833 -62.8667 71° East 540 621 31,000  Level Gander Center
01:28AM 43.4167 -62.6833 76° East 550 633 31,000  Level Gander Center
01:29AM 43.4833 -62.4667 67° East 550 633 31,000  Level Gander Center
01:30AM 43.5333 -62.2667 71° East 550 633 31,000  Level Gander Center
01:31AM 43.5833 -62.0667 71° East 550 633 31,000  Level Gander Center
01:32AM 43.6333 -61.8833 69° East 550 633 31,000  Level Gander Center
01:33AM 43.7000 -61.6667 67° East 550 633 31,000  Level Gander Center
01:34AM 43.7333 -61.4667 77° East 550 633 31,000  Level Gander Center
01:35AM 43.7833 -61.2667 71° East 550 633 31,000  Level Gander Center
01:36AM 43.8333 -61.0667 71° East 550 633 31,000  Level Gander Center
01:37AM 43.9000 -60.8667 65° Northeast 550 633 31,000  Level Gander Center
01:38AM 43.9333 -60.6833 76° East 560 644 31,000  Level Gander Center
01:39AM 43.9667 -60.4667 78° East 560 644 31,000  Level Gander Center
01:40AM 44.0333 -60.2667 65° Northeast 560 644 31,000  Level Gander Center
01:41AM 44.0833 -60.0500 72° East 560 644 31,000  Level Gander Center
01:42AM 44.1333 -59.8500 71° East 550 633 31,000  Level Gander Center
01:43AM 44.1833 -59.6500 71° East 550 633 31,000  Level Gander Center
01:44AM 44.2333 -59.4500 71° East 550 633 31,000 180 Level Gander Center
01:45AM 44.2667 -59.2333 78° East 550 633 31,400 420 Climbing Gander Center
01:46AM 44.3167 -59.0500 69° East 550 633 31,900 480 Climbing Gander Center
01:47AM 44.3667 -58.8333 72° East 550 633 32,400 480 Climbing Gander Center
01:48AM 44.4167 -58.6167 72° East 550 633 32,900 300 Climbing Gander Center
01:49AM 44.4500 -58.4333 76° East 550 633 33,000  Climbing Gander Center
01:50AM 44.5000 -58.2167 72° East 550 633 33,000  Level Gander Center
01:51AM 44.5500 -58.0333 69° East 550 633 33,000  Level Gander Center
01:52AM 44.5833 -57.8167 78° East 550 633 33,000  Level Gander Center
01:53AM 44.6333 -57.6000 72° East 550 633 33,000  Level Gander Center
01:54AM 44.6667 -57.4167 76° East 550 633 33,000  Level Gander Center
01:55AM 44.7167 -57.2000 72° East 550 633 33,000  Level Gander Center
01:56AM 44.7500 -56.9833 78° East 560 644 33,000  Level Gander Center
01:57AM 44.8000 -56.7667 72° East 550 633 33,000  Level Gander Center
01:58AM 44.8333 -56.5833 76° East 550 633 33,000  Level Moncton Center
01:58AM 44.8333 -56.5833 76° East 560 644 33,000  Level Gander Center
01:59AM 44.8667 -56.3833 77° East 550 633 33,000  Level Moncton Center
02:00AM 44.9167 -56.1667 72° East 550 633 33,000  Level Moncton Center
02:01AM 44.9500 -55.9667 77° East 550 633 33,000  Level Moncton Center
02:02AM 45.0000 -55.7500 72° East 560 644 33,000  Level Moncton Center
02:03AM 45.0333 -55.5167 78° East 560 644 33,000  Level Gander Center
02:04AM 45.0833 -55.3000 72° East 560 644 33,000  Level Gander Center
02:05AM 45.1333 -55.0833 72° East 570 656 33,000  Level Gander Center
02:06AM 45.1667 -54.9000 75° East 570 656 33,000  Level Gander Center
02:07AM 45.2000 -54.7000 77° East 570 656 33,000  Level Gander Center
02:08AM 45.2500 -54.5000 70° East 570 656 33,000  Level Gander Center
02:09AM 45.2833 -54.2667 78° East 570 656 33,000  Level Gander Center
02:10AM 45.3333 -54.0000 75° East 570 656 33,000  Level Gander Center
02:11AM 45.3500 -53.8167 83° East 570 656 33,000  Level Gander Center
02:12AM 45.3833 -53.6333 75° East 570 656 33,000  Level Gander Center
02:13AM 45.4500 -53.4000 68° East 570 656 33,000  Level Gander Center
02:14AM 45.4833 -53.1833 78° East 570 656 33,000  Level Gander Center
02:15AM 45.5167 -52.9667 78° East 570 656 33,000  Level Gander Center
02:16AM 45.5500 -52.7000 80° East 570 656 33,000  Level Gander Center
02:17AM 45.5833 -52.4833 78° East 570 656 33,000  Level Gander Center
02:18AM 45.6167 -52.2833 77° East 570 656 33,000  Level Gander Center
02:19AM 45.6500 -52.0833 77° East 570 656 33,000  Level Gander Center
02:20AM 45.6833 -51.8833 77° East 570 656 33,000  Level Gander Center
02:21AM 45.7333 -51.6667 72° East 570 656 33,000  Level Gander Center
02:22AM 45.7667 -51.3833 80° East 570 656 33,000  Level Gander Center
02:23AM 45.8000 -51.1333 79° East 570 656 33,000  Level Gander Center
02:24AM 45.8333 -50.9500 75° East 560 644 33,000  Level Gander Center
02:25AM 45.8500 -50.8000 81° East 550 633 33,000  Level Gander Center
02:26AM 45.8833 -50.5667 78° East 560 644 33,000  Level Gander Center
02:27AM 45.9167 -50.3500 77° East 550 633 33,000  Level Gander Center
02:28AM 45.9667 -50.1167 73° East 540 621 33,000  Level Gander Center
02:29AM 45.9833 -49.9167 83° East 540 621 33,000  Level Gander Center
02:30AM 46.0333 -49.7167 70° East 540 621 33,000  Level Gander Center
02:31AM 46.0833 -49.5333 68° East 510 587 33,000  Level Gander Center
02:32AM 46.1333 -49.3000 73° East 520 598 33,000  Level Gander Center
02:33AM 46.1667 -49.1500 72° East 520 598 33,000  Level Gander Center
02:34AM 46.2333 -48.9167 67° East 520 598 33,000  Level Gander Center
02:35AM 46.2833 -48.7167 70° East 520 598 33,000  Level Gander Center
02:36AM 46.3167 -48.5667 72° East 520 598 33,000  Level Gander Center
02:37AM 46.3667 -48.3500 71° East 520 598 33,000  Level Gander Center
02:38AM 46.4167 -48.1167 73° East 510 587 33,000  Level Gander Center
02:39AM 46.4667 -47.9333 68° East 510 587 33,000  Level Gander Center
02:40AM 46.5000 -47.7833 72° East 510 587 33,000  Level Gander Center
02:41AM 46.5500 -47.5500 73° East 510 587 33,000  Level Gander Center
02:42AM 46.6000 -47.3333 71° East 520 598 33,000  Level Gander Center
02:43AM 46.6333 -47.1333 76° East 510 587 33,000  Level Gander Center
02:44AM 46.7000 -46.9167 66° East 530 610 33,000  Level Gander Center
02:45AM 46.7167 -46.7333 82° East 530 610 33,000  Level Gander Center
02:47AM 46.7715 -46.4883 72° East  Level FlightAware Approximate
02:54AM 47.0614 -45.1428 72° East  Level FlightAware Approximate
02:55AM 47.1015 -44.9495 73° East  Level FlightAware Approximate
02:56AM 47.1413 -44.7558 73° East  Level FlightAware Approximate
02:57AM 47.1808 -44.5618 73° East  Level FlightAware Approximate
02:58AM 47.2199 -44.3676 73° East  Level FlightAware Approximate
02:59AM 47.2587 -44.1730 74° East  Level FlightAware Approximate
03:00AM 47.2972 -43.9782 74° East  Level FlightAware Approximate
03:01AM 47.3353 -43.7831 74° East  Level FlightAware Approximate
03:02AM 47.3731 -43.5877 74° East  Level FlightAware Approximate
03:03AM 47.4106 -43.3921 74° East  Level FlightAware Approximate
03:04AM 47.4478 -43.1961 74° East  Level FlightAware Approximate
03:05AM 47.4846 -42.9999 74° East  Level FlightAware Approximate
03:06AM 47.5211 -42.8034 75° East  Level FlightAware Approximate
03:07AM 47.5572 -42.6067 75° East  Level FlightAware Approximate
03:08AM 47.5930 -42.4096 75° East  Level FlightAware Approximate
03:09AM 47.6285 -42.2123 75° East  Level FlightAware Approximate
03:10AM 47.6636 -42.0148 75° East  Level FlightAware Approximate
03:11AM 47.6984 -41.8169 75° East  Level FlightAware Approximate
03:12AM 47.7328 -41.6188 75° East  Level FlightAware Approximate
03:13AM 47.7670 -41.4205 76° East  Level FlightAware Approximate
03:14AM 47.8007 -41.2219 76° East  Level FlightAware Approximate
03:15AM 47.8341 -41.0230 76° East  Level FlightAware Approximate
03:16AM 47.8672 -40.8238 76° East  Level FlightAware Approximate
03:17AM 47.9000 -40.6245 76° East  Level FlightAware Approximate
03:18AM 47.9324 -40.4248 76° East  Level FlightAware Approximate
03:19AM 47.9644 -40.2250 76° East  Level FlightAware Approximate
03:20AM 47.9961 -40.0248 77° East  Level FlightAware Approximate
03:21AM 48.0256 -39.8238 78° East  Level FlightAware Approximate
03:22AM 48.0545 -39.6225 78° East  Level FlightAware Approximate
03:23AM 48.0830 -39.4210 78° East  Level FlightAware Approximate
03:24AM 48.1111 -39.2192 78° East  Level FlightAware Approximate
03:25AM 48.1389 -39.0172 78° East  Level FlightAware Approximate
03:26AM 48.1664 -38.8150 78° East  Level FlightAware Approximate
03:27AM 48.1935 -38.6126 79° East  Level FlightAware Approximate
03:28AM 48.2202 -38.4100 79° East  Level FlightAware Approximate
03:29AM 48.2466 -38.2072 79° East  Level FlightAware Approximate
03:30AM 48.2726 -38.0041 79° East  Level FlightAware Approximate
03:31AM 48.2983 -37.8009 79° East  Level FlightAware Approximate
03:32AM 48.3236 -37.5974 79° East  Level FlightAware Approximate
03:33AM 48.3486 -37.3938 79° East  Level FlightAware Approximate
03:34AM 48.3732 -37.1899 80° East  Level FlightAware Approximate
03:35AM 48.3974 -36.9859 80° East  Level FlightAware Approximate
03:36AM 48.4213 -36.7816 80° East  Level FlightAware Approximate
03:37AM 48.4448 -36.5772 80° East  Level FlightAware Approximate
03:38AM 48.4679 -36.3726 80° East  Level FlightAware Approximate
03:39AM 48.4907 -36.1678 80° East  Level FlightAware Approximate
03:40AM 48.5131 -35.9628 81° East  Level FlightAware Approximate
03:41AM 48.5352 -35.7576 81° East  Level FlightAware Approximate
03:42AM 48.5569 -35.5523 81° East  Level FlightAware Approximate
03:43AM 48.5782 -35.3467 81° East  Level FlightAware Approximate
03:44AM 48.5992 -35.1411 81° East  Level FlightAware Approximate
03:45AM 48.6198 -34.9352 81° East  Level FlightAware Approximate
03:46AM 48.6400 -34.7292 81° East  Level FlightAware Approximate
03:47AM 48.6598 -34.5230 82° East  Level FlightAware Approximate
03:48AM 48.6793 -34.3166 82° East  Level FlightAware Approximate
03:49AM 48.6984 -34.1101 82° East  Level FlightAware Approximate
03:50AM 48.7172 -33.9035 82° East  Level FlightAware Approximate
03:51AM 48.7356 -33.6966 82° East  Level FlightAware Approximate
03:52AM 48.7536 -33.4897 82° East  Level FlightAware Approximate
03:53AM 48.7712 -33.2826 83° East  Level FlightAware Approximate
03:54AM 48.7885 -33.0753 83° East  Level FlightAware Approximate
03:55AM 48.8054 -32.8679 83° East  Level FlightAware Approximate
03:56AM 48.8219 -32.6604 83° East  Level FlightAware Approximate
03:57AM 48.8381 -32.4527 83° East  Level FlightAware Approximate
03:58AM 48.8539 -32.2449 83° East  Level FlightAware Approximate
03:59AM 48.8693 -32.0369 83° East  Level FlightAware Approximate
04:00AM 48.8843 -31.8289 84° East  Level FlightAware Approximate
04:01AM 48.8990 -31.6207 84° East  Level FlightAware Approximate
04:02AM 48.9132 -31.4124 84° East  Level FlightAware Approximate
04:03AM 48.9272 -31.2040 84° East  Level FlightAware Approximate
04:04AM 48.9407 -30.9954 84° East  Level FlightAware Approximate
04:05AM 48.9538 -30.7868 84° East  Level FlightAware Approximate
04:06AM 48.9666 -30.5780 85° East  Level FlightAware Approximate
04:07AM 48.9790 -30.3691 85° East  Level FlightAware Approximate
04:08AM 48.9910 -30.1602 85° East  Level FlightAware Approximate
04:09AM 49.0067 -29.9520 78° East  Level FlightAware Approximate
04:10AM 49.0354 -29.7467 78° East  Level FlightAware Approximate
04:11AM 49.0637 -29.5411 78° East  Level FlightAware Approximate
04:12AM 49.0916 -29.3353 78° East  Level FlightAware Approximate
04:13AM 49.1191 -29.1293 78° East  Level FlightAware Approximate
04:14AM 49.1463 -28.9231 79° East  Level FlightAware Approximate
04:15AM 49.1733 -28.7166 79° East  Level FlightAware Approximate
04:16AM 49.2004 -28.5102 79° East  Level FlightAware Approximate
04:17AM 49.2272 -28.3034 79° East  Level FlightAware Approximate
04:18AM 49.2536 -28.0965 79° East  Level FlightAware Approximate
04:19AM 49.2796 -27.8893 79° East  Level FlightAware Approximate
04:20AM 49.3052 -27.6819 79° East  Level FlightAware Approximate
04:21AM 49.3305 -27.4744 79° East  Level FlightAware Approximate
04:22AM 49.3554 -27.2666 79° East  Level FlightAware Approximate
04:23AM 49.3800 -27.0585 80° East  Level FlightAware Approximate
04:24AM 49.4041 -26.8503 80° East  Level FlightAware Approximate
04:25AM 49.4279 -26.6419 80° East  Level FlightAware Approximate
04:26AM 49.4513 -26.4333 80° East  Level FlightAware Approximate
04:27AM 49.4744 -26.2245 80° East  Level FlightAware Approximate
04:28AM 49.4970 -26.0155 80° East  Level FlightAware Approximate
04:29AM 49.5193 -25.8062 81° East  Level FlightAware Approximate
04:30AM 49.5412 -25.5968 81° East  Level FlightAware Approximate
04:31AM 49.5628 -25.3873 81° East  Level FlightAware Approximate
04:32AM 49.5839 -25.1775 81° East  Level FlightAware Approximate
04:33AM 49.6047 -24.9676 81° East  Level FlightAware Approximate
04:34AM 49.6251 -24.7574 81° East  Level FlightAware Approximate
04:35AM 49.6451 -24.5471 82° East  Level FlightAware Approximate
04:36AM 49.6647 -24.3367 82° East  Level FlightAware Approximate
04:37AM 49.6839 -24.1260 82° East  Level FlightAware Approximate
04:38AM 49.7028 -23.9152 82° East  Level FlightAware Approximate
04:39AM 49.7213 -23.7043 82° East  Level FlightAware Approximate
04:40AM 49.7394 -23.4931 82° East  Level FlightAware Approximate
04:41AM 49.7571 -23.2819 83° East  Level FlightAware Approximate
04:42AM 49.7744 -23.0704 83° East  Level FlightAware Approximate
04:43AM 49.7914 -22.8589 83° East  Level FlightAware Approximate
04:44AM 49.8079 -22.6471 83° East  Level FlightAware Approximate
04:45AM 49.8248 -22.4354 83° East  Level FlightAware Approximate
04:46AM 49.8421 -22.2237 83° East  Level FlightAware Approximate
04:47AM 49.8590 -22.0118 83° East  Level FlightAware Approximate
04:48AM 49.8756 -21.7997 83° East  Level FlightAware Approximate
04:49AM 49.8917 -21.5876 83° East  Level FlightAware Approximate
04:50AM 49.9075 -21.3753 83° East  Level FlightAware Approximate
04:51AM 49.9229 -21.1628 84° East  Level FlightAware Approximate
04:52AM 49.9379 -20.9502 84° East  Level FlightAware Approximate
04:53AM 49.9525 -20.7375 84° East  Level FlightAware Approximate
04:54AM 49.9667 -20.5247 84° East  Level FlightAware Approximate
04:55AM 49.9805 -20.3117 84° East  Level FlightAware Approximate
04:56AM 49.9939 -20.0986 84° East  Level FlightAware Approximate
04:57AM 50.0213 -19.8898 73° East  Level FlightAware Approximate
04:58AM 50.0606 -19.6844 73° East  Level FlightAware Approximate
04:59AM 50.0996 -19.4786 73° East  Level FlightAware Approximate
05:00AM 50.1382 -19.2725 74° East  Level FlightAware Approximate
05:01AM 50.1764 -19.0661 74° East  Level FlightAware Approximate
05:02AM 50.2143 -18.8594 74° East  Level FlightAware Approximate
05:03AM 50.2518 -18.6523 74° East  Level FlightAware Approximate
05:04AM 50.2890 -18.4449 74° East  Level FlightAware Approximate
05:05AM 50.3257 -18.2372 74° East  Level FlightAware Approximate
05:06AM 50.3621 -18.0292 75° East  Level FlightAware Approximate
05:07AM 50.3982 -17.8208 75° East  Level FlightAware Approximate
05:08AM 50.4338 -17.6122 75° East  Level FlightAware Approximate
05:09AM 50.4693 -17.4033 75° East  Level FlightAware Approximate
05:10AM 50.5047 -17.1942 75° East  Level FlightAware Approximate
05:11AM 50.5396 -16.9848 75° East  Level FlightAware Approximate
05:12AM 50.5742 -16.7750 75° East  Level FlightAware Approximate
05:13AM 50.6084 -16.5650 76° East  Level FlightAware Approximate
05:14AM 50.6423 -16.3547 76° East  Level FlightAware Approximate
05:15AM 50.6757 -16.1440 76° East  Level FlightAware Approximate
05:16AM 50.7088 -15.9331 76° East  Level FlightAware Approximate
05:17AM 50.7415 -15.7218 76° East  Level FlightAware Approximate
05:18AM 50.7738 -15.5103 76° East  Level FlightAware Approximate
05:19AM 50.8057 -15.2985 77° East  Level FlightAware Approximate
05:20AM 50.8373 -15.0864 77° East  Level FlightAware Approximate
05:21AM 50.8682 -14.8738 77° East  Level FlightAware Approximate
05:22AM 50.8984 -14.6610 77° East  Level FlightAware Approximate
05:23AM 50.9284 -14.4479 77° East  Level FlightAware Approximate
05:24AM 50.9579 -14.2345 78° East  Level FlightAware Approximate
05:25AM 50.9870 -14.0208 78° East  Level FlightAware Approximate
05:26AM 51.0158 -13.8069 78° East  Level FlightAware Approximate
05:27AM 51.0452 -13.5930 78° East  Level FlightAware Approximate
05:28AM 51.0742 -13.3789 78° East  Level FlightAware Approximate
05:29AM 51.1029 -13.1646 78° East  Level FlightAware Approximate
05:30AM 51.1311 -12.9500 78° East  Level FlightAware Approximate
05:31AM 51.1590 -12.7351 78° East  Level FlightAware Approximate
05:32AM 51.1865 -12.5199 78° East  Level FlightAware Approximate
05:33AM 51.2136 -12.3045 79° East  Level FlightAware Approximate
05:34AM 51.2403 -12.0889 79° East  Level FlightAware Approximate
05:35AM 51.2666 -11.8730 79° East  Level FlightAware Approximate
05:36AM 51.2925 -11.6568 79° East  Level FlightAware Approximate
05:37AM 51.3180 -11.4404 79° East  Level FlightAware Approximate
05:38AM 51.3431 -11.2238 79° East  Level FlightAware Approximate
05:39AM 51.3677 -11.0069 80° East  Level FlightAware Approximate
05:40AM 51.3913 -10.7896 80° East  Level FlightAware Approximate
05:41AM 51.4146 -10.5721 80° East  Level FlightAware Approximate
05:42AM 51.4374 -10.3544 80° East  Level FlightAware Approximate
05:43AM 51.4598 -10.1365 81° East  Level FlightAware Approximate
05:44AM 51.4818 -9.9183 81° East  Level FlightAware Approximate
05:44AM 50.8870 -10.8350 81° East 497 572 33,000  Level FlightAware
05:45AM 51.5033 -9.6999 81° East  Level FlightAware Approximate
05:45AM 50.9150 -10.7120 70° East 497 572 33,000  Level FlightAware
05:46AM 50.9620 -10.5040 70° East 495 570 33,000  Level FlightAware
05:47AM 50.9890 -10.3880 70° East 495 570 33,000  Level FlightAware
05:47AM 51.0230 -10.2280 71° East 495 570 33,000  Level FlightAware
05:48AM 51.0590 -10.0660 70° East 496 571 33,000  Level FlightAware
05:49AM 51.0870 -9.9420 70° East 496 571 33,000  Level FlightAware
05:50AM 51.1220 -9.7770 71° East 498 573 33,000  Level FlightAware
05:50AM 51.1480 -9.6590 71° East 500 575 33,000  Level FlightAware
05:51AM 51.1760 -9.5280 71° East 501 577 33,000  Level FlightAware
05:52AM 51.2150 -9.3450 71° East 504 580 33,000  Level FlightAware
05:52AM 51.2370 -9.2400 71° East 504 580 33,000  Level FlightAware
05:53AM 51.2790 -9.0410 71° East 505 581 33,000  Level FlightAware
05:54AM 51.3180 -8.8550 71° East 33,000  Level FlightAware
05:55AM 51.3490 -8.7080 71° East 506 582 33,000  Level FlightAware
05:55AM 51.3730 -8.5880 72° East 507 583 33,000  Level FlightAware
05:58AM 51.3950 -8.1040 86° East  Level Estimated
05:58AM 51.4810 -8.0580 86° East 505 581 33,000  Level FlightAware
06:00AM 51.4924 -7.6826 87° East  Level Estimated
06:01AM 51.4985 -7.4617 87° East  Level Estimated
06:02AM 51.5042 -7.2408 88° East  Level Estimated
06:03AM 51.5095 -7.0198 88° East  Level Estimated
06:04AM 51.5144 -6.7987 88° East  Level Estimated
06:05AM 51.5189 -6.5776 88° East  Level Estimated
06:06AM 51.5229 -6.3565 88° East  Level Estimated
06:06AM 51.7490 -6.2170 88° East 484 557 33,000  Level FlightAware
06:07AM 51.7430 -6.0710 94° East 490 564 33,000  Level FlightAware
06:08AM 51.7370 -5.9080 93° East 496 571 33,000  Level FlightAware
06:08AM 51.7310 -5.7610 94° East 497 572 33,000  Level FlightAware
06:09AM 51.7240 -5.6000 94° East 495 570 33,000  Level FlightAware
06:10AM 51.7170 -5.4450 94° East 495 570 33,000  Level FlightAware
06:11AM 51.7100 -5.2820 94° East 496 571 33,000  Level FlightAware
06:11AM 51.7030 -5.1360 94° East 497 572 33,000  Level FlightAware
06:12AM 51.6960 -4.9850 94° East 498 573 33,000  Level FlightAware
06:13AM 51.6870 -4.8190 95° East 499 574 33,000  Level FlightAware
06:13AM 51.6800 -4.6710 94° East 500 575 33,000  Level FlightAware
06:14AM 51.6710 -4.5030 95° East 501 577 33,000  Level FlightAware
06:15AM 51.6640 -4.3600 94° East 501 577 33,000  Level FlightAware
06:15AM 51.6550 -4.2120 96° East 501 577 33,000  Level FlightAware
06:16AM 51.6460 -4.0400 95° East 500 575 33,000  Level FlightAware
06:17AM 51.6370 -3.8940 96° East 501 577 33,000  Level FlightAware
06:18AM 51.6270 -3.7280 95° East 502 578 33,000  Level FlightAware
06:18AM 51.6180 -3.5740 95° East 502 578 33,000 -420 Level FlightAware
06:19AM 51.6090 -3.4280 96° East 502 578 32,500 -1,020 Descending FlightAware
06:20AM 51.5970 -3.2700 97° East 473 544 31,600 -1,320 Descending FlightAware
06:20AM 51.5810 -3.1330 101° East 447 514 30,700 -1,380 Descending FlightAware
06:21AM 51.5630 -3.0020 102° East 417 480 29,800 -1,800 Descending FlightAware
06:22AM 51.5460 -2.8700 102° East 409 471 28,200 -2,340 Descending FlightAware
06:22AM 51.5387 -2.8176 103° East 410 472 27,500 -1,920 Descending FlightAware ADS-B
06:23AM 51.5203 -2.6799 102° East 392 451 26,200 -1,860 Descending FlightAware ADS-B
06:23AM 51.5085 -2.5880 102° East 392 451 25,000 -2,040 Descending FlightAware ADS-B
06:24AM 51.4969 -2.5009 102° East 377 434 24,000 -1,980 Descending FlightAware ADS-B
06:24AM 51.4855 -2.4218 103° East 368 423 23,000 -1,980 Descending FlightAware ADS-B
06:25AM 51.4746 -2.3369 102° East 362 417 22,000 -1,920 Descending FlightAware ADS-B
06:25AM 51.4640 -2.2573 102° East 355 409 21,000 -1,980 Descending FlightAware ADS-B
06:26AM 51.4536 -2.1806 102° East 353 406 20,000 -1,980 Descending FlightAware ADS-B
06:27AM 51.4413 -2.0917 102° East 351 404 18,900 -1,800 Descending FlightAware ADS-B
06:27AM 51.4307 -2.0157 103° East 346 398 18,100 -1,740 Descending FlightAware ADS-B
06:28AM 51.4189 -1.9315 103° East 342 394 17,100 -1,620 Descending FlightAware ADS-B
06:28AM 51.4076 -1.8522 103° East 338 389 16,300 -1,440 Descending FlightAware ADS-B
06:29AM 51.3972 -1.7783 103° East 335 386 15,600 -1,380 Descending FlightAware ADS-B
06:29AM 51.3866 -1.7036 103° East 332 382 14,900 -1,320 Descending FlightAware ADS-B
06:30AM 51.3749 -1.6226 103° East 327 376 14,200 -840 Descending FlightAware ADS-B
06:30AM 51.3646 -1.5507 103° East 323 372 14,000 -180 Descending FlightAware ADS-B
06:31AM 51.3526 -1.4679 103° East 328 377 14,000  Level FlightAware ADS-B
06:31AM 51.3419 -1.3956 103° East 329 379 14,000  Level FlightAware ADS-B
06:32AM 51.3313 -1.3236 103° East 315 362 14,000  Level FlightAware ADS-B
06:32AM 51.3226 -1.2640 103° East 299 344 14,000  Level FlightAware ADS-B
06:33AM 51.3143 -1.2079 103° East 297 342 14,000  Level FlightAware ADS-B
06:33AM 51.3120 -1.1871 100° East 300 345 14,000  Level FlightAware ADS-B
06:33AM 51.3111 -1.1761 97° East 301 346 14,000  Level FlightAware ADS-B
06:33AM 51.3096 -1.1152 92° East 304 350 14,000  Level FlightAware ADS-B
06:34AM 51.3092 -1.0581 91° East 306 352 14,000  Level FlightAware ADS-B
06:34AM 51.3089 -0.9880 90° East 306 352 14,000 -300 Level FlightAware ADS-B
06:35AM 51.3082 -0.9187 91° East 307 353 13,700 -840 Descending FlightAware ADS-B
06:35AM 51.3075 -0.8499 91° East 303 349 13,200 -1,020 Descending FlightAware ADS-B
06:36AM 51.3070 -0.7836 91° East 298 343 12,700 -1,020 Descending FlightAware ADS-B
06:36AM 51.3062 -0.7153 91° East 295 339 12,200 -960 Descending FlightAware ADS-B
06:37AM 51.3053 -0.6484 91° East 288 331 11,700 -1,020 Descending FlightAware ADS-B
06:37AM 51.3046 -0.5848 91° East 281 323 11,200 -1,020 Descending FlightAware ADS-B
06:38AM 51.3037 -0.5215 91° East 275 316 10,700 -1,020 Descending FlightAware ADS-B
06:39AM 51.3029 -0.4605 91° East 271 312 10,200 -720 Descending FlightAware ADS-B
06:39AM 51.3017 -0.3991 92° East 270 311 10,000 -240 Descending FlightAware ADS-B
06:39AM 51.3010 -0.3486 91° East 269 310 10,000  Level FlightAware ADS-B
06:40AM 51.2999 -0.3357 98° East 268 308 10,000  Level FlightAware ADS-B
06:40AM 51.2982 -0.3277 109° East 266 306 10,000  Level FlightAware ADS-B
06:40AM 51.2919 -0.3123 123° Southeast 261 300 10,000  Level FlightAware ADS-B
06:40AM 51.2878 -0.3059 135° Southeast 260 299 10,000  Level FlightAware ADS-B
06:40AM 51.2800 -0.2976 147° Southeast 257 296 10,000  Level FlightAware ADS-B
06:40AM 51.2689 -0.2916 161° South 253 291 10,000  Level FlightAware ADS-B
06:40AM 51.2576 -0.2912 179° South 250 288 10,000  Level FlightAware ADS-B
06:40AM 51.2497 -0.2943 194° South 247 284 10,000  Level FlightAware ADS-B
06:41AM 51.2404 -0.3018 207° Southwest 246 283 10,000  Level FlightAware ADS-B
06:41AM 51.2355 -0.3083 220° Southwest 245 282 10,000  Level FlightAware ADS-B
06:41AM 51.2299 -0.3194 231° Southwest 245 282 10,000  Level FlightAware ADS-B
06:41AM 51.2267 -0.3291 242° Southwest 245 282 10,000  Level FlightAware ADS-B
06:41AM 51.2253 -0.3351 250° West 246 283 10,000  Level FlightAware ADS-B
06:41AM 51.2243 -0.3416 256° West 245 282 10,000  Level FlightAware ADS-B
06:41AM 51.2236 -0.3500 262° West 246 283 10,000  Level FlightAware ADS-B
06:41AM 51.2236 -0.3583 270° West 247 284 10,000  Level FlightAware ADS-B
06:41AM 51.2245 -0.3669 280° West 247 284 10,000  Level FlightAware ADS-B
06:41AM 51.2258 -0.3737 287° West 249 287 10,000  Level FlightAware ADS-B
06:41AM 51.2271 -0.3792 291° West 249 287 10,000  Level FlightAware ADS-B
06:42AM 51.2307 -0.3896 299° West 250 288 10,000  Level FlightAware ADS-B
06:42AM 51.2338 -0.3960 308° West 252 290 10,000  Level FlightAware ADS-B
06:42AM 51.2381 -0.4025 316° Northwest 255 293 10,000  Level FlightAware ADS-B
06:42AM 51.2428 -0.4079 325° Northwest 256 295 10,000  Level FlightAware ADS-B
06:42AM 51.2540 -0.4192 328° Northwest 257 296 10,000  Level FlightAware ADS-B
06:42AM 51.2693 -0.4366 325° Northwest 257 296 10,000  Level FlightAware ADS-B
06:43AM 51.2995 -0.4671 328° Northwest 258 297 10,000  Level FlightAware ADS-B
06:43AM 51.3047 -0.4717 331° Northwest 260 299 10,000  Level FlightAware ADS-B
06:43AM 51.3089 -0.4745 338° Northwest 263 303 10,000  Level FlightAware ADS-B
06:43AM 51.3128 -0.4763 344° North 264 304 10,000  Level FlightAware ADS-B
06:43AM 51.3175 -0.4776 350° North 266 306 10,000  Level FlightAware ADS-B
06:43AM 51.3223 -0.4779 358° North 267 307 10,000  Level FlightAware ADS-B
06:43AM 51.3308 -0.4763 North 270 311 10,000  Level FlightAware ADS-B
06:43AM 51.3360 -0.4741 15° North 271 312 10,000  Level FlightAware ADS-B
06:43AM 51.3425 -0.4699 22° Northeast 273 314 10,000  Level FlightAware ADS-B
06:43AM 51.3470 -0.4657 30° Northeast 274 315 10,000  Level FlightAware ADS-B
06:43AM 51.3517 -0.4597 38° Northeast 275 316 10,000  Level FlightAware ADS-B
06:44AM 51.3547 -0.4546 47° Northeast 275 316 10,000  Level FlightAware ADS-B
06:44AM 51.3587 -0.4453 55° Northeast 275 316 10,000  Level FlightAware ADS-B
06:44AM 51.3609 -0.4386 62° Northeast 274 315 10,000  Level FlightAware ADS-B
06:44AM 51.3624 -0.4324 69° East 274 315 10,000  Level FlightAware ADS-B
06:44AM 51.3640 -0.4180 80° East 273 314 10,000  Level FlightAware ADS-B
06:44AM 51.3640 -0.4104 90° East 272 313 10,000  Level FlightAware ADS-B
06:44AM 51.3636 -0.4035 95° East 271 312 10,000  Level FlightAware ADS-B
06:44AM 51.3620 -0.3937 105° East 269 310 10,000  Level FlightAware ADS-B
06:44AM 51.3596 -0.3848 113° Southeast 267 307 10,000  Level FlightAware ADS-B
06:44AM 51.3575 -0.3792 121° Southeast 265 305 10,000  Level FlightAware ADS-B
06:44AM 51.3519 -0.3688 131° Southeast 262 302 10,000  Level FlightAware ADS-B
06:44AM 51.3436 -0.3591 144° Southeast 257 296 10,000  Level FlightAware ADS-B
06:45AM 51.3293 -0.3461 150° Southeast 259 298 10,000  Level FlightAware ADS-B
06:45AM 51.3111 -0.3280 148° Southeast 257 296 10,000  Level FlightAware ADS-B
06:45AM 51.2827 -0.3019 150° Southeast 257 296 10,000  Level FlightAware ADS-B
06:45AM 51.2789 -0.2989 154° Southeast 256 295 10,000  Level FlightAware ADS-B
06:46AM 51.2700 -0.2952 165° South 252 290 10,000  Level FlightAware ADS-B
06:46AM 51.2664 -0.2949 177° South 251 289 10,000  Level FlightAware ADS-B
06:46AM 51.2563 -0.2969 187° South 248 285 10,000  Level FlightAware ADS-B
06:46AM 51.2474 -0.3016 198° South 249 287 10,000  Level FlightAware ADS-B
06:46AM 51.2440 -0.3043 207° Southwest 248 285 10,000  Level FlightAware ADS-B
06:46AM 51.2368 -0.3125 215° Southwest 248 285 10,000  Level FlightAware ADS-B
06:46AM 51.2306 -0.3233 228° Southwest 246 283 10,000  Level FlightAware ADS-B
06:46AM 51.2283 -0.3297 240° Southwest 246 283 10,000  Level FlightAware ADS-B
06:46AM 51.2252 -0.3411 246° West 244 281 10,000  Level FlightAware ADS-B
06:47AM 51.2234 -0.3543 258° West 246 283 10,000  Level FlightAware ADS-B
06:47AM 51.2232 -0.3636 268° West 245 282 10,000  Level FlightAware ADS-B
06:47AM 51.2236 -0.3708 275° West 246 283 10,000  Level FlightAware ADS-B
06:47AM 51.2259 -0.3847 285° West 248 285 10,000  Level FlightAware ADS-B
06:47AM 51.2290 -0.3951 295° West 249 287 10,000  Level FlightAware ADS-B
06:47AM 51.2329 -0.4037 306° West 251 289 10,000  Level FlightAware ADS-B
06:47AM 51.2389 -0.4128 317° Northwest 253 291 10,000  Level FlightAware ADS-B
06:47AM 51.2434 -0.4181 323° Northwest 255 293 10,000  Level FlightAware ADS-B
06:48AM 51.2670 -0.4440 326° Northwest 256 295 10,000 -180 Level FlightAware ADS-B
06:48AM 51.2766 -0.4544 326° Northwest 259 298 9,900 -900 Descending FlightAware ADS-B
06:48AM 51.2882 -0.4661 328° Northwest 261 300 9,700 -840 Descending FlightAware ADS-B
06:48AM 51.2921 -0.4706 324° Northwest 259 298 9,700 -780 Level FlightAware ADS-B
06:48AM 51.2953 -0.4756 316° Northwest 257 296 9,600 -1,500 Descending FlightAware ADS-B